createdAt,value
2018-07-30T00:02:23.348Z,9.17
2018-07-30T00:04:52.356Z,8.37
2018-07-30T00:07:21.327Z,9.30
2018-07-30T00:09:49.964Z,8.63
2018-07-30T00:12:18.976Z,9.63
2018-07-30T00:14:47.975Z,9.80
2018-07-30T00:17:16.940Z,8.63
2018-07-30T00:19:45.887Z,9.27
2018-07-30T00:22:14.796Z,9.90
2018-07-30T00:24:43.877Z,9.03
2018-07-30T00:27:12.897Z,9.33
2018-07-30T00:29:41.846Z,9.30
2018-07-30T00:32:10.811Z,9.13
2018-07-30T00:34:39.758Z,8.90
2018-07-30T00:37:08.842Z,8.57
2018-07-30T00:39:37.423Z,9.17
2018-07-30T00:42:06.300Z,9.23
2018-07-30T00:44:35.258Z,9.40
2018-07-30T00:47:04.167Z,8.87
2018-07-30T00:49:33.057Z,9.17
2018-07-30T00:52:01.985Z,8.77
2018-07-30T00:54:30.568Z,10.17
2018-07-30T00:56:59.542Z,9.63
2018-07-30T00:59:28.490Z,9.13
2018-07-30T01:01:57.556Z,9.70
2018-07-30T01:04:26.059Z,9.53
2018-07-30T01:06:54.992Z,9.40
2018-07-30T01:09:23.958Z,9.10
2018-07-30T01:11:54.718Z,10.33
2018-07-30T01:14:23.662Z,8.47
2018-07-30T01:16:52.645Z,8.97
2018-07-30T01:19:21.589Z,9.90
2018-07-30T01:21:50.570Z,8.27
2018-07-30T01:24:19.521Z,9.13
2018-07-30T01:26:48.448Z,9.47
2018-07-30T01:29:17.360Z,9.37
2018-07-30T01:31:46.358Z,10.27
2018-07-30T01:34:15.336Z,9.77
2018-07-30T01:36:44.230Z,9.80
2018-07-30T01:39:13.197Z,10.50
2018-07-30T01:41:42.132Z,9.33
2018-07-30T01:44:11.194Z,9.60
2018-07-30T01:46:40.169Z,9.20
2018-07-30T01:49:09.342Z,9.83
2018-07-30T01:51:37.881Z,10.00
2018-07-30T01:54:06.838Z,10.47
2018-07-30T01:56:35.804Z,10.27
2018-07-30T01:59:04.762Z,9.43
2018-07-30T02:01:33.723Z,9.73
2018-07-30T02:04:02.674Z,10.87
2018-07-30T02:06:31.703Z,9.60
2018-07-30T02:09:00.677Z,10.33
2018-07-30T02:11:29.642Z,10.37
2018-07-30T02:13:58.733Z,10.27
2018-07-30T02:16:27.881Z,10.00
2018-07-30T02:18:56.921Z,9.53
2018-07-30T02:21:26.036Z,9.83
2018-07-30T02:23:55.022Z,9.00
2018-07-30T02:26:23.994Z,9.97
2018-07-30T02:28:53.064Z,10.50
2018-07-30T02:31:22.173Z,10.90
2018-07-30T02:33:51.122Z,9.97
2018-07-30T02:36:20.054Z,9.70
2018-07-30T02:38:49.001Z,10.40
2018-07-30T02:41:17.984Z,10.47
2018-07-30T02:43:47.020Z,11.10
2018-07-30T02:46:16.165Z,10.63
2018-07-30T02:48:45.166Z,10.33
2018-07-30T02:51:14.143Z,11.37
2018-07-30T02:53:43.163Z,8.60
2018-07-30T02:56:11.724Z,11.10
2018-07-30T02:58:40.768Z,10.83
2018-07-30T03:01:09.864Z,10.30
2018-07-30T03:03:38.985Z,9.47
2018-07-30T03:06:07.617Z,10.10
2018-07-30T03:08:36.604Z,10.27
2018-07-30T03:11:05.602Z,9.17
2018-07-30T03:13:34.642Z,10.57
2018-07-30T03:16:03.702Z,9.97
2018-07-30T03:18:32.745Z,9.37
2018-07-30T03:21:01.695Z,9.57
2018-07-30T03:23:30.734Z,10.57
2018-07-30T03:25:59.758Z,10.60
2018-07-30T03:28:28.820Z,9.83
2018-07-30T03:30:57.915Z,9.93
2018-07-30T03:33:27.138Z,9.47
2018-07-30T03:35:56.175Z,9.47
2018-07-30T03:38:25.260Z,9.23
2018-07-30T03:40:54.284Z,10.33
2018-07-30T03:43:23.374Z,8.93
2018-07-30T03:45:52.375Z,9.33
2018-07-30T03:48:21.514Z,8.97
2018-07-30T03:50:50.592Z,10.27
2018-07-30T03:53:19.642Z,10.47
2018-07-30T03:55:48.281Z,10.87
2018-07-30T03:58:17.305Z,10.00
2018-07-30T04:00:45.929Z,10.53
2018-07-30T04:03:14.913Z,10.30
2018-07-30T04:05:44.031Z,9.73
2018-07-30T04:08:13.046Z,9.43
2018-07-30T04:10:42.024Z,9.87
2018-07-30T04:13:11.102Z,10.27
2018-07-30T04:15:40.241Z,11.03
2018-07-30T04:18:09.230Z,10.13
2018-07-30T04:20:38.263Z,9.57
2018-07-30T04:23:07.364Z,9.93
2018-07-30T04:25:36.335Z,9.50
2018-07-30T04:28:04.904Z,10.27
2018-07-30T04:30:33.879Z,10.80
2018-07-30T04:33:03.058Z,11.47
2018-07-30T04:35:32.102Z,9.43
2018-07-30T04:38:00.698Z,10.00
2018-07-30T04:40:29.708Z,9.93
2018-07-30T04:42:58.688Z,10.63
2018-07-30T04:45:27.762Z,11.13
2018-07-30T04:47:56.799Z,11.60
2018-07-30T04:50:25.888Z,11.27
2018-07-30T04:52:54.874Z,11.53
2018-07-30T04:55:23.875Z,11.30
2018-07-30T04:57:52.862Z,11.37
2018-07-30T05:00:21.845Z,11.10
2018-07-30T05:02:50.842Z,11.80
2018-07-30T05:05:19.458Z,11.47
2018-07-30T05:07:48.799Z,11.57
2018-07-30T05:10:17.898Z,11.73
2018-07-30T05:12:46.891Z,11.33
2018-07-30T05:15:15.915Z,12.57
2018-07-30T05:17:45.016Z,12.63
2018-07-30T05:20:14.082Z,13.10
2018-07-30T05:22:43.178Z,11.87
2018-07-30T05:25:12.251Z,13.23
2018-07-30T05:27:41.318Z,13.20
2018-07-30T05:30:10.286Z,12.80
2018-07-30T05:32:39.363Z,12.77
2018-07-30T05:35:08.355Z,12.33
2018-07-30T05:37:37.481Z,14.40
2018-07-30T05:40:06.601Z,13.33
2018-07-30T05:42:35.735Z,14.50
2018-07-30T05:45:05.182Z,13.73
2018-07-30T05:47:34.185Z,13.10
2018-07-30T05:50:03.308Z,12.17
2018-07-30T05:52:32.329Z,13.63
2018-07-30T05:55:01.381Z,13.10
2018-07-30T05:57:30.360Z,11.67
2018-07-30T05:59:59.405Z,12.07
2018-07-30T06:02:28.530Z,12.57
2018-07-30T06:04:57.541Z,12.27
2018-07-30T06:07:26.629Z,11.60
2018-07-30T06:09:55.586Z,11.80
2018-07-30T06:12:25.014Z,12.43
2018-07-30T06:14:54.120Z,11.20
2018-07-30T06:17:23.139Z,11.73
2018-07-30T06:19:52.159Z,11.17
2018-07-30T06:22:21.139Z,11.60
2018-07-30T06:24:50.246Z,10.87
2018-07-30T06:27:19.435Z,11.20
2018-07-30T06:29:48.542Z,10.30
2018-07-30T06:32:17.571Z,10.80
2018-07-30T06:34:46.615Z,10.10
2018-07-30T06:37:16.463Z,9.97
2018-07-30T06:39:45.603Z,10.53
2018-07-30T06:42:14.763Z,9.27
2018-07-30T06:44:43.812Z,9.97
2018-07-30T06:47:14.376Z,10.17
2018-07-30T06:49:43.636Z,9.53
2018-07-30T06:52:12.712Z,8.97
2018-07-30T06:54:41.835Z,9.43
2018-07-30T06:57:10.991Z,8.67
2018-07-30T06:59:40.132Z,8.97
2018-07-30T07:02:09.253Z,8.87
2018-07-30T07:04:38.377Z,8.17
2018-07-30T07:07:07.541Z,8.30
2018-07-30T07:09:36.495Z,8.10
2018-07-30T07:12:05.648Z,8.03
2018-07-30T07:14:34.660Z,7.43
2018-07-30T07:17:03.622Z,7.90
2018-07-30T07:19:32.197Z,7.90
2018-07-30T07:22:01.295Z,7.77
2018-07-30T07:24:30.196Z,8.20
2018-07-30T07:26:59.229Z,7.27
2018-07-30T07:29:28.240Z,7.73
2018-07-30T07:31:57.255Z,7.70
2018-07-30T07:34:26.221Z,7.70
2018-07-30T07:36:55.252Z,7.37
2018-07-30T07:39:24.215Z,7.70
2018-07-30T07:41:53.274Z,7.73
2018-07-30T07:44:22.239Z,6.50
2018-07-30T07:46:51.164Z,6.83
2018-07-30T07:49:20.152Z,6.17
2018-07-30T07:51:49.225Z,6.83
2018-07-30T07:54:18.182Z,6.77
2018-07-30T07:56:47.185Z,6.93
2018-07-30T07:59:16.223Z,7.00
2018-07-30T08:01:45.252Z,6.93
2018-07-30T08:04:14.158Z,6.83
2018-07-30T08:06:43.145Z,6.27
2018-07-30T08:09:12.665Z,6.50
2018-07-30T08:11:41.597Z,7.07
2018-07-30T08:14:10.679Z,7.40
2018-07-30T08:16:39.748Z,7.20
2018-07-30T08:19:08.806Z,7.77
2018-07-30T08:21:37.894Z,7.67
2018-07-30T08:24:07.172Z,7.53
2018-07-30T08:26:36.224Z,7.00
2018-07-30T08:29:05.194Z,6.30
2018-07-30T08:31:34.234Z,7.40
2018-07-30T08:34:03.267Z,7.00
2018-07-30T08:36:32.322Z,6.73
2018-07-30T08:39:01.249Z,7.07
2018-07-30T08:41:30.325Z,6.97
2018-07-30T08:43:59.325Z,6.50
2018-07-30T08:46:28.334Z,6.87
2018-07-30T08:48:57.398Z,6.60
2018-07-30T08:51:26.363Z,7.00
2018-07-30T08:53:55.315Z,6.63
2018-07-30T08:56:24.409Z,6.20
2018-07-30T08:58:55.289Z,6.97
2018-07-30T09:01:24.308Z,6.20
2018-07-30T09:03:53.345Z,6.60
2018-07-30T09:06:22.357Z,6.00
2018-07-30T09:08:51.388Z,6.43
2018-07-30T09:11:20.465Z,6.60
2018-07-30T09:13:49.426Z,6.60
2018-07-30T09:16:18.541Z,6.47
2018-07-30T09:18:47.537Z,5.73
2018-07-30T09:21:16.545Z,6.17
2018-07-30T09:23:45.542Z,6.93
2018-07-30T09:26:14.471Z,6.30
2018-07-30T09:28:43.471Z,6.63
2018-07-30T09:31:12.590Z,6.47
2018-07-30T09:33:41.574Z,7.20
2018-07-30T09:36:10.715Z,7.07
2018-07-30T09:38:39.848Z,6.73
2018-07-30T09:41:08.954Z,6.57
2018-07-30T09:43:37.920Z,6.57
2018-07-30T09:46:06.953Z,5.90
2018-07-30T09:48:35.944Z,5.90
2018-07-30T09:51:04.922Z,5.87
2018-07-30T09:53:33.912Z,6.40
2018-07-30T09:56:02.948Z,6.00
2018-07-30T09:58:31.945Z,6.10
2018-07-30T10:01:10.126Z,5.78
2018-07-30T10:03:39.297Z,5.97
2018-07-30T10:06:08.271Z,6.03
2018-07-30T10:08:37.256Z,6.30
2018-07-30T10:11:06.239Z,6.53
2018-07-30T10:13:35.194Z,6.23
2018-07-30T10:16:04.210Z,5.70
2018-07-30T10:18:33.173Z,6.58
2018-07-30T10:21:02.193Z,5.28
2018-07-30T10:23:31.163Z,5.53
2018-07-30T10:26:00.214Z,5.75
2018-07-30T10:28:29.261Z,6.28
2018-07-30T10:30:58.250Z,5.67
2018-07-30T10:33:27.293Z,5.08
2018-07-30T10:35:56.365Z,5.78
2018-07-30T10:38:25.380Z,6.08
2018-07-30T10:40:54.534Z,5.70
2018-07-30T10:43:23.618Z,5.90
2018-07-30T10:45:52.701Z,5.83
2018-07-30T10:48:21.815Z,6.12
2018-07-30T10:50:50.900Z,5.78
2018-07-30T10:53:19.936Z,5.72
2018-07-30T10:55:49.076Z,5.55
2018-07-30T10:58:18.084Z,5.50
2018-07-30T11:00:47.130Z,5.65
2018-07-30T11:03:16.113Z,5.28
2018-07-30T11:05:45.191Z,5.50
2018-07-30T11:08:14.190Z,5.20
2018-07-30T11:10:43.273Z,5.25
2018-07-30T11:13:12.419Z,5.55
2018-07-30T11:15:41.338Z,5.17
2018-07-30T11:18:10.408Z,4.80
2018-07-30T11:20:39.423Z,4.85
2018-07-30T11:23:08.562Z,4.78
2018-07-30T11:25:37.596Z,5.03
2018-07-30T11:28:06.649Z,4.72
2018-07-30T11:30:35.691Z,5.53
2018-07-30T11:33:04.753Z,5.22
2018-07-30T11:35:33.839Z,4.80
2018-07-30T11:38:02.900Z,4.80
2018-07-30T11:40:32.109Z,5.20
2018-07-30T11:43:01.509Z,5.30
2018-07-30T11:45:30.525Z,5.28
2018-07-30T11:47:59.620Z,5.37
2018-07-30T11:50:28.688Z,5.58
2018-07-30T11:52:57.797Z,5.50
2018-07-30T11:55:27.607Z,4.92
2018-07-30T11:57:56.729Z,4.92
2018-07-30T12:00:25.832Z,5.20
2018-07-30T12:02:55.284Z,5.17
2018-07-30T12:05:24.325Z,5.22
2018-07-30T12:07:53.404Z,4.78
2018-07-30T12:10:22.500Z,5.28
2018-07-30T12:12:51.564Z,5.40
2018-07-30T12:15:20.613Z,4.72
2018-07-30T12:17:49.619Z,4.90
2018-07-30T12:20:18.712Z,4.95
2018-07-30T12:22:47.814Z,5.08
2018-07-30T12:25:17.008Z,4.62
2018-07-30T12:27:46.117Z,4.25
2018-07-30T12:30:15.356Z,4.70
2018-07-30T12:32:44.495Z,4.60
2018-07-30T12:35:13.625Z,4.62
2018-07-30T12:37:42.761Z,4.33
2018-07-30T12:40:11.918Z,4.55
2018-07-30T12:42:40.902Z,4.92
2018-07-30T12:45:09.984Z,3.98
2018-07-30T12:47:39.045Z,4.65
2018-07-30T12:50:07.985Z,4.80
2018-07-30T12:52:36.992Z,3.85
2018-07-30T12:55:06.026Z,4.37
2018-07-30T12:57:35.074Z,3.90
2018-07-30T13:00:04.258Z,4.00
2018-07-30T13:02:33.353Z,3.92
2018-07-30T13:05:02.497Z,3.80
2018-07-30T13:07:31.665Z,3.83
2018-07-30T13:10:00.848Z,4.05
2018-07-30T13:12:29.891Z,4.30
2018-07-30T13:14:58.929Z,4.00
2018-07-30T13:17:27.895Z,3.72
2018-07-30T13:19:56.948Z,3.95
2018-07-30T13:22:25.953Z,4.08
2018-07-30T13:24:55.037Z,3.33
2018-07-30T13:27:24.084Z,3.80
2018-07-30T13:29:53.101Z,3.77
2018-07-30T13:32:22.120Z,3.50
2018-07-30T13:34:51.239Z,3.85
2018-07-30T13:37:20.376Z,3.80
2018-07-30T13:39:49.422Z,3.37
2018-07-30T13:42:18.650Z,3.50
2018-07-30T13:44:47.609Z,3.58
2018-07-30T13:47:16.714Z,3.22
2018-07-30T13:49:45.714Z,3.25
2018-07-30T13:52:14.823Z,3.40
2018-07-30T13:54:43.879Z,3.20
2018-07-30T13:57:13.085Z,3.58
2018-07-30T13:59:42.163Z,3.20
2018-07-30T14:02:11.175Z,3.22
2018-07-30T14:04:43.845Z,3.27
2018-07-30T14:07:14.709Z,3.75
2018-07-30T14:09:43.722Z,3.17
2018-07-30T14:12:12.874Z,3.30
2018-07-30T14:14:41.926Z,3.40
2018-07-30T14:17:11.104Z,3.72
2018-07-30T14:19:40.186Z,3.85
2018-07-30T14:22:09.346Z,3.75
2018-07-30T14:24:38.459Z,3.22
2018-07-30T14:27:07.636Z,3.40
2018-07-30T14:29:36.723Z,3.90
2018-07-30T14:32:05.856Z,3.67
2018-07-30T14:34:35.151Z,3.10
2018-07-30T14:37:04.481Z,3.75
2018-07-30T14:39:33.609Z,3.58
2018-07-30T14:42:02.670Z,4.03
2018-07-30T14:44:31.698Z,4.17
2018-07-30T14:47:00.826Z,4.20
2018-07-30T14:49:30.073Z,4.35
2018-07-30T14:51:59.130Z,4.03
2018-07-30T14:54:28.272Z,3.80
2018-07-30T14:56:57.308Z,3.98
2018-07-30T14:59:26.520Z,4.35
2018-07-30T15:01:55.677Z,4.85
2018-07-30T15:04:24.902Z,5.20
2018-07-30T15:06:53.966Z,5.20
2018-07-30T15:09:23.125Z,5.12
2018-07-30T15:11:52.202Z,4.60
2018-07-30T15:14:21.282Z,4.28
2018-07-30T15:16:50.401Z,4.47
2018-07-30T15:19:19.632Z,4.67
2018-07-30T15:21:48.589Z,5.22
2018-07-30T15:24:17.933Z,5.17
2018-07-30T15:26:47.084Z,17.57
2018-07-30T15:29:16.307Z,5.08
2018-07-30T15:31:45.362Z,5.08
2018-07-30T15:34:14.790Z,5.58
2018-07-30T15:36:44.019Z,7.28
2018-07-30T15:39:13.235Z,5.58
2018-07-30T15:41:42.316Z,5.95
2018-07-30T15:44:11.441Z,5.37
2018-07-30T15:46:40.573Z,5.00
2018-07-30T15:49:09.648Z,5.55
2018-07-30T15:51:38.608Z,6.03
2018-07-30T15:54:07.841Z,5.08
2018-07-30T15:56:36.955Z,5.90
2018-07-30T15:59:06.073Z,5.28
2018-07-30T16:01:35.225Z,5.58
2018-07-30T16:04:04.413Z,6.20
2018-07-30T16:06:33.499Z,5.90
2018-07-30T16:09:02.590Z,6.03
2018-07-30T16:11:31.726Z,5.67
2018-07-30T16:14:00.925Z,5.73
2018-07-30T16:16:30.011Z,5.43
2018-07-30T16:18:59.096Z,5.43
2018-07-30T16:21:28.277Z,5.57
2018-07-30T16:23:57.396Z,5.70
2018-07-30T16:26:26.443Z,6.60
2018-07-30T16:28:55.877Z,6.13
2018-07-30T16:31:24.961Z,7.17
2018-07-30T17:46:52.227Z,7.23
2018-07-30T17:49:21.425Z,7.07
2018-07-30T17:51:50.525Z,6.67
2018-07-30T17:54:19.626Z,6.73
2018-07-30T17:56:48.666Z,7.23
2018-07-30T17:59:17.630Z,6.43
2018-07-30T18:01:46.780Z,6.27
2018-07-30T18:04:15.865Z,7.30
2018-07-30T18:06:45.056Z,6.43
2018-07-30T18:09:14.142Z,6.97
2018-07-30T18:11:43.245Z,7.47
2018-07-30T18:14:11.951Z,7.57
2018-07-30T18:16:41.078Z,6.87
2018-07-30T18:19:10.104Z,7.40
2018-07-30T18:21:39.242Z,6.53
2018-07-30T18:24:08.411Z,7.17
2018-07-30T18:26:37.600Z,6.77
2018-07-30T18:29:06.313Z,6.70
2018-07-30T18:31:35.447Z,5.97
2018-07-30T18:34:10.985Z,6.63
2018-07-30T18:36:40.026Z,6.90
2018-07-30T18:39:09.115Z,6.77
2018-07-30T18:41:38.228Z,6.23
2018-07-30T18:44:07.365Z,6.67
2018-07-30T18:46:36.403Z,6.20
2018-07-30T18:49:05.554Z,6.60
2018-07-30T18:51:34.601Z,7.00
2018-07-30T18:54:03.747Z,6.87
2018-07-30T18:56:32.863Z,6.67
2018-07-30T18:59:02.001Z,7.00
2018-07-30T19:01:31.234Z,6.70
2018-07-30T19:04:00.418Z,6.27
2018-07-30T19:06:29.472Z,6.37
2018-07-30T19:08:58.623Z,6.73
2018-07-30T19:11:27.755Z,7.10
2018-07-30T19:13:56.892Z,6.80
2018-07-30T19:16:25.935Z,6.63
2018-07-30T19:18:54.957Z,6.17
2018-07-30T19:21:24.191Z,7.60
2018-07-30T19:23:53.379Z,6.23
2018-07-30T19:26:22.367Z,6.77
2018-07-30T19:28:51.679Z,6.57
2018-07-30T19:31:21.020Z,7.30
2018-07-30T19:33:50.221Z,6.33
2018-07-30T19:36:19.606Z,7.17
2018-07-30T19:38:48.767Z,6.80
2018-07-30T19:41:17.931Z,6.13
2018-07-30T19:43:46.891Z,6.90
2018-07-30T19:46:15.877Z,7.63
2018-07-30T19:48:44.960Z,7.13
2018-07-30T19:51:13.997Z,7.10
2018-07-30T19:53:43.223Z,6.50
2018-07-30T19:56:12.264Z,7.27
2018-07-30T19:58:41.586Z,7.83
2018-07-30T20:01:10.474Z,7.00
2018-07-30T20:03:39.553Z,7.23
2018-07-30T20:06:08.456Z,7.17
2018-07-30T20:08:37.431Z,7.60
2018-07-30T20:11:07.304Z,7.40
2018-07-30T20:13:36.329Z,7.43
2018-07-30T20:16:05.479Z,7.63
2018-07-30T20:18:34.704Z,7.00
2018-07-30T20:21:03.902Z,7.43
2018-07-30T20:23:33.005Z,8.23
2018-07-30T20:26:02.034Z,7.17
2018-07-30T20:28:31.115Z,7.43
2018-07-30T20:31:00.264Z,6.93
2018-07-30T20:33:29.310Z,7.03
2018-07-30T20:35:58.446Z,8.60
2018-07-30T20:38:27.489Z,8.13
2018-07-30T20:40:56.524Z,7.27
2018-07-30T20:43:25.597Z,8.00
2018-07-30T20:45:54.705Z,6.93
2018-07-30T20:48:23.799Z,7.70
2018-07-30T20:50:52.948Z,7.63
2018-07-30T20:53:22.209Z,7.67
2018-07-30T20:55:51.356Z,7.30
2018-07-30T21:01:15.487Z,7.00
2018-07-30T21:03:44.243Z,6.77
2018-07-30T21:06:12.946Z,6.93
2018-07-30T21:08:41.674Z,7.40
2018-07-30T21:11:10.961Z,7.30
2018-07-30T21:13:40.254Z,7.80
2018-07-30T21:16:09.524Z,7.10
2018-07-30T21:18:38.848Z,6.77
2018-07-30T21:21:08.205Z,7.20
2018-07-30T21:23:37.486Z,7.20
2018-07-30T21:26:06.725Z,7.50
2018-07-30T21:28:35.990Z,7.07
2018-07-30T21:31:05.287Z,7.63
2018-07-30T21:33:34.499Z,7.47
2018-07-30T21:36:03.692Z,8.13
2018-07-30T21:38:33.008Z,6.93
2018-07-30T21:41:02.281Z,7.10
2018-07-30T21:43:31.505Z,7.27
2018-07-30T21:46:00.681Z,7.17
2018-07-30T21:48:30.241Z,6.80
2018-07-30T21:50:59.392Z,7.67
2018-07-30T21:53:29.558Z,7.30
2018-07-30T21:55:58.861Z,6.93
2018-07-30T21:58:28.104Z,7.03
2018-07-30T22:00:58.402Z,6.87
2018-07-30T22:03:27.903Z,7.63
2018-07-30T22:06:03.932Z,7.07
2018-07-30T22:08:33.036Z,7.63
2018-07-30T22:11:02.285Z,7.10
2018-07-30T22:13:31.601Z,6.70
2018-07-30T22:16:00.664Z,6.83
2018-07-30T22:18:29.881Z,8.43
2018-07-30T22:20:59.080Z,7.73
2018-07-30T22:23:28.359Z,7.67
2018-07-30T22:25:57.656Z,7.03
2018-07-30T22:28:26.940Z,7.10
2018-07-30T22:30:56.139Z,7.10
2018-07-30T22:33:24.755Z,7.43
2018-07-30T22:35:54.203Z,7.77
2018-07-30T22:38:23.520Z,7.40
2018-07-30T22:40:52.755Z,7.13
2018-07-30T22:43:22.073Z,8.40
2018-07-30T22:45:51.359Z,7.47
2018-07-30T22:48:20.578Z,7.97
2018-07-30T22:50:51.207Z,7.43
2018-07-30T22:53:20.331Z,8.33
2018-07-30T22:55:49.605Z,8.10
2018-07-30T22:58:18.889Z,7.23
2018-07-30T23:00:48.111Z,7.30
2018-07-30T23:03:20.453Z,7.27
2018-07-30T23:05:49.772Z,7.07
2018-07-30T23:08:19.011Z,7.57
2018-07-30T23:10:48.316Z,7.50
2018-07-30T23:13:17.577Z,8.00
2018-07-30T23:15:46.806Z,8.60
2018-07-30T23:18:16.007Z,8.43
2018-07-30T23:20:45.170Z,8.27
2018-07-30T23:23:14.453Z,7.90
2018-07-30T23:25:43.635Z,7.33
2018-07-30T23:28:12.774Z,7.67
2018-07-30T23:30:41.913Z,7.70
2018-07-30T23:33:11.079Z,6.97
2018-07-30T23:35:40.216Z,7.90
2018-07-30T23:38:09.479Z,7.70
2018-07-30T23:40:38.643Z,7.57
2018-07-30T23:43:07.906Z,7.57
2018-07-30T23:45:37.085Z,7.53
2018-07-30T23:48:05.824Z,7.67
2018-07-30T23:50:35.040Z,7.60
2018-07-30T23:53:04.322Z,7.83
2018-07-30T23:55:33.545Z,8.27
2018-07-30T23:58:02.884Z,8.13
